createdAt,value
2018-05-01T00:01:05.151Z,13.4
2018-05-01T00:11:05.108Z,14.0
2018-05-01T00:21:05.192Z,14.1
2018-05-01T00:31:05.133Z,14.3
2018-05-01T00:41:05.074Z,15.7
2018-05-01T00:51:04.919Z,15.7
2018-05-01T01:01:04.831Z,15.2
2018-05-01T01:11:04.787Z,15.3
2018-05-01T01:21:04.850Z,17.4
2018-05-01T01:31:04.750Z,17.6
2018-05-01T01:41:04.663Z,17.6
2018-05-01T01:51:05.580Z,12.3
2018-05-01T02:01:05.498Z,13.0
2018-05-01T02:11:05.421Z,13.9
2018-05-01T02:21:05.481Z,12.5
2018-05-01T02:31:05.405Z,11.7
2018-05-01T02:41:05.448Z,12.9
2018-05-01T02:51:05.391Z,12.5
2018-05-01T03:01:05.313Z,12.9
2018-05-01T03:11:05.147Z,12.9
2018-05-01T03:21:05.242Z,12.1
2018-05-01T03:31:05.184Z,12.5
2018-05-01T03:41:05.075Z,12.9
2018-05-01T03:51:04.954Z,12.9
2018-05-01T04:01:04.850Z,12.6
2018-05-01T04:11:04.797Z,14.1
2018-05-01T04:21:04.752Z,13.0
2018-05-01T04:31:05.404Z,12.7
2018-05-01T04:41:05.310Z,12.2
2018-05-01T04:51:05.187Z,12.9
2018-05-01T05:01:05.106Z,12.8
2018-05-01T05:11:04.996Z,16.5
2018-05-01T05:21:04.991Z,14.7
2018-05-01T05:31:04.820Z,15.4
2018-05-01T05:41:04.700Z,15.7
2018-05-01T05:51:05.589Z,20.7
2018-05-01T06:01:05.577Z,28.0
2018-05-01T06:11:05.409Z,54.0
2018-05-01T06:21:05.377Z,38.6
2018-05-01T06:31:05.414Z,35.6
2018-05-01T06:41:05.342Z,39.6
2018-05-01T06:51:05.279Z,32.5
2018-05-01T07:01:05.239Z,19.2
2018-05-01T07:11:05.169Z,18.3
2018-05-01T07:21:05.116Z,16.1
2018-05-01T07:31:05.023Z,18.7
2018-05-01T07:41:04.914Z,11.7
2018-05-01T07:51:04.845Z,15.3
2018-05-01T08:01:03.786Z,14.0
2018-05-01T08:11:05.766Z,11.4
2018-05-01T08:21:04.881Z,9.2
2018-05-01T08:31:04.817Z,9.1
2018-05-01T08:41:05.700Z,16.0
2018-05-01T08:51:04.662Z,12.2
2018-05-01T09:01:04.539Z,8.5
2018-05-01T09:11:05.516Z,7.0
2018-05-01T09:21:04.546Z,8.1
2018-05-01T09:31:05.528Z,7.5
2018-05-01T09:41:04.473Z,6.6
2018-05-01T09:51:05.447Z,7.1
2018-05-01T10:01:05.480Z,6.5
2018-05-01T10:11:05.488Z,5.7
2018-05-01T10:21:05.623Z,5.1
2018-05-01T10:31:04.618Z,6.2
2018-05-01T10:41:04.623Z,4.9
2018-05-01T10:51:04.524Z,4.5
2018-05-01T11:01:04.503Z,5.1
2018-05-01T11:11:04.448Z,4.2
2018-05-01T11:21:04.562Z,3.0
2018-05-01T11:31:04.475Z,4.0
2018-05-01T11:41:04.427Z,3.1
2018-05-01T11:51:04.428Z,2.9
2018-05-01T12:01:04.393Z,3.8
2018-05-01T12:11:04.267Z,3.8
2018-05-01T12:21:04.369Z,4.2
2018-05-01T12:31:04.384Z,4.0
2018-05-01T12:41:04.371Z,3.2
2018-05-01T12:51:04.302Z,4.1
2018-05-01T13:01:04.244Z,4.5
2018-05-01T13:11:04.203Z,2.9
2018-05-01T13:21:04.323Z,4.7
2018-05-01T13:31:04.359Z,5.7
2018-05-01T13:41:04.388Z,4.4
2018-05-01T13:51:04.348Z,3.8
2018-05-01T14:01:04.311Z,4.7
2018-05-01T14:11:04.358Z,3.0
2018-05-01T14:21:04.433Z,4.3
2018-05-01T14:31:04.407Z,3.3
2018-05-01T14:41:04.327Z,3.8
2018-05-01T14:51:05.229Z,2.7
2018-05-01T15:01:04.163Z,3.4
2018-05-01T15:11:04.107Z,4.5
2018-05-01T15:21:04.163Z,3.0
2018-05-01T15:31:05.040Z,4.6
2018-05-01T15:41:03.901Z,2.9
2018-05-01T15:51:05.839Z,2.9
2018-05-01T16:01:05.799Z,3.3
2018-05-01T16:11:05.760Z,4.2
2018-05-01T16:21:04.890Z,3.1
2018-05-01T16:31:04.866Z,3.6
2018-05-01T16:41:04.858Z,4.0
2018-05-01T16:51:05.823Z,3.3
2018-05-01T17:01:05.805Z,2.9
2018-05-01T17:11:04.836Z,5.8
2018-05-01T17:21:05.920Z,3.9
2018-05-01T17:31:05.784Z,6.1
2018-05-01T17:41:05.659Z,5.8
2018-05-01T17:51:05.636Z,9.7
2018-05-01T18:01:05.584Z,8.6
2018-05-01T18:11:04.551Z,6.9
2018-05-01T18:21:05.578Z,7.0
2018-05-01T18:31:05.512Z,6.4
2018-05-01T18:41:05.602Z,7.9
2018-05-01T18:51:04.474Z,10.1
2018-05-01T19:01:05.398Z,8.8
2018-05-01T19:11:05.380Z,8.0
2018-05-01T19:21:05.392Z,8.4
2018-05-01T19:31:04.326Z,8.5
2018-05-01T19:41:05.268Z,9.8
2018-05-01T19:51:05.421Z,11.8
2018-05-01T20:01:05.381Z,13.4
2018-05-01T20:11:05.264Z,8.6
2018-05-01T20:21:05.223Z,9.0
2018-05-01T20:31:04.157Z,11.4
2018-05-01T20:41:04.024Z,13.4
2018-05-01T20:51:05.933Z,13.2
2018-05-01T21:01:04.839Z,11.1
2018-05-01T21:11:05.688Z,15.7
2018-05-01T21:21:05.722Z,14.3
2018-05-01T21:31:05.650Z,13.7
2018-05-01T21:41:05.564Z,14.7
2018-05-01T21:51:05.539Z,13.0
2018-05-01T22:01:05.394Z,13.6
2018-05-01T22:11:05.303Z,18.7
2018-05-01T22:21:05.312Z,16.1
2018-05-01T22:31:05.238Z,16.0
2018-05-01T22:41:05.082Z,16.4
2018-05-01T22:51:05.933Z,13.9
2018-05-01T23:01:05.850Z,13.4
2018-05-01T23:11:05.776Z,13.0
2018-05-01T23:21:05.768Z,13.1
2018-05-01T23:31:05.684Z,13.4
2018-05-01T23:41:05.570Z,15.4
2018-05-01T23:51:05.397Z,15.8
